Startpagina
METAR-TAF:

METAR-TAF

Vliegvelden :

Koeweit, Koeweit

breedte: 29-13N, lengte: 047-59E, hoogte: 55 m

Actueel weer

Dit bericht is 58 minuten geleden gemaakt, om 21:00 UTC
Wind 20 kt uit het noordnoordwesten
Temperatuur 37°C
Vochtigheid 17%
Druk 1000 hPa
Zicht: 4000 m
Onbewolkt
Stuifstof

METAR: OKBK 172100Z 33020KT 4000 BLDU SKC 37/08 Q1000 NOSIG

Tijdstip: 00:58 (21:58 UTC)

Verwachting

Dit bericht is 5 uur en het 13 minuten geleden gemaakt, om 16:45 UTC
Verwachting geldig van 17 om 18 UTC tot 18 om 24 UTC
Wind 12 kt uit het noordnoordwesten met uitschieters tot 25 kt
Zicht: 6000 m
Onbewolkt
Tijdelijke
van 17 om 18 UTC tot 18 om 06 UTC
Zicht: 2000 m
Stuifstof

TAF: OKBK 171645Z 1718/1824 33012G25KT 6000 SKC TEMPO 1718/1806 2000 BLDU

Waarnemingen en weersverwachtingen van meer dan 4000 vliegvelden (METAR en TAF).

De beschikbare stations zijn de gele en rode punten op de kaart.

Ga met uw muis naar het station om de naam te zien.

Klik dan om waarnemingen en weersverwachtingen te zien.

kaart wijzigen: klik op de groene knoppen met een zwart kruis om in te zoomen, op de groene knop met een streepje om uit te zoomen of op de groene pijlen voor aangrenzende kaarten.


METAR-TAF: